Time;durP1;ratioP1;P1;durP2;ratioP2;P2;SDS_P1;SDS_P2;PMS_P1;PMS_P2;Temp;Humidity;BMP_temperature;BMP_pressure;BME280_temperature;BME280_humidity;BME280_pressure;Samples;Min_cycle;Max_cycle;Signal;HPM_P1;HPM_P2
2023/05/17 00:01:39;;;;;;;12.43;9.82;;;;;;;13.97;90.17;94304.63;5074510;28;20287;-71
2023/05/17 00:04:07;;;;;;;11.15;9.75;;;;;;;13.97;90.60;94314.94;5075175;28;20181;-71
2023/05/17 00:06:35;;;;;;;10.68;9.68;;;;;;;13.93;90.48;94319.66;5074774;28;20189;-70
2023/05/17 00:09:06;;;;;;;12.70;10.95;;;;;;;13.88;90.33;94314.53;5075203;28;20193;-70
2023/05/17 00:11:34;;;;;;;11.30;10.35;;;;;;;13.81;90.60;94312.53;5075112;28;20241;-70
2023/05/17 00:14:06;;;;;;;14.60;10.82;;;;;;;13.79;91.03;94319.63;5071117;28;20266;-70
2023/05/17 00:16:37;;;;;;;11.55;9.85;;;;;;;13.79;91.49;94319.63;5074385;28;20672;-70
2023/05/17 00:19:08;;;;;;;12.10;10.38;;;;;;;13.77;91.40;94313.69;5074779;28;20268;-70
2023/05/17 00:21:35;;;;;;;11.82;10.63;;;;;;;13.73;91.43;94317.25;5074099;28;20207;-71
2023/05/17 00:24:02;;;;;;;11.10;10.00;;;;;;;13.70;91.63;94318.03;5074928;28;20258;-70
2023/05/17 00:26:32;;;;;;;11.95;10.48;;;;;;;13.70;91.80;94315.25;5074051;28;20568;-71
2023/05/17 00:29:00;;;;;;;11.57;10.38;;;;;;;13.68;91.94;94309.31;5074866;28;20207;-70
2023/05/17 00:31:30;;;;;;;10.68;9.68;;;;;;;13.66;91.85;94306.16;5074979;28;20189;-70
2023/05/17 00:33:57;;;;;;;11.40;10.30;;;;;;;13.65;91.91;94310.13;5074669;28;20201;-70
2023/05/17 00:36:25;;;;;;;11.23;10.13;;;;;;;13.58;91.55;94300.97;5073764;28;20201;-70
2023/05/17 00:38:53;;;;;;;11.40;10.20;;;;;;;13.47;91.41;94303.69;5074753;28;20215;-70
2023/05/17 00:41:20;;;;;;;10.90;10.00;;;;;;;13.46;91.56;94299.34;5074034;28;20215;-70
2023/05/17 00:43:50;;;;;;;10.75;9.75;;;;;;;13.46;91.73;94310.41;5074974;28;20254;-70
2023/05/17 00:46:17;;;;;;;11.30;10.20;;;;;;;13.45;91.73;94319.91;5074426;28;20526;-70
2023/05/17 00:48:46;;;;;;;10.63;9.63;;;;;;;13.39;91.77;94319.47;5074360;28;20216;-70
2023/05/17 00:51:17;;;;;;;10.48;9.43;;;;;;;13.38;91.61;94309.59;5076590;28;20211;-70
2023/05/17 00:53:48;;;;;;;10.30;9.38;;;;;;;13.34;91.68;94319.88;5077716;28;20197;-71
2023/05/17 00:56:15;;;;;;;11.20;10.20;;;;;;;13.33;91.67;94317.50;5077485;28;20248;-70
2023/05/17 00:58:46;;;;;;;11.35;10.32;;;;;;;13.33;91.56;94325.81;5077456;28;20197;-70
2023/05/17 01:01:14;;;;;;;11.57;10.43;;;;;;;13.27;91.52;94322.59;5077415;28;20205;-70
2023/05/17 01:03:42;;;;;;;11.98;10.30;;;;;;;13.27;92.22;94322.59;5078562;28;20185;-70
2023/05/17 01:06:11;;;;;;;11.80;10.65;;;;;;;13.29;92.12;94323.03;5078442;28;20192;-70
2023/05/17 01:08:39;;;;;;;10.57;9.57;;;;;;;13.27;91.98;94319.84;5077894;28;20197;-70
2023/05/17 01:11:16;;;;;;;11.70;9.32;;;;;;;13.24;91.88;94318.63;5078441;28;20189;-70
2023/05/17 01:13:52;;;;;;;11.38;9.27;;;;;;;13.20;91.73;94317.00;5078205;28;20199;-70
2023/05/17 01:16:25;;;;;;;9.95;8.95;;;;;;;13.17;91.72;94320.53;5076762;28;20268;-70
2023/05/17 01:18:58;;;;;;;10.65;9.63;;;;;;;13.18;91.80;94308.28;5078131;28;20188;-71
2023/05/17 01:21:51;;;;;;;10.43;9.35;;;;;;;13.19;91.54;94316.22;5077319;28;20208;-71
2023/05/17 01:24:26;;;;;;;10.68;9.60;;;;;;;13.12;91.11;94310.63;5078031;28;20192;-70
2023/05/17 01:26:57;;;;;;;10.40;9.23;;;;;;;13.02;91.36;94314.91;5077898;28;20181;-71
2023/05/17 01:29:29;;;;;;;10.95;8.82;;;;;;;12.98;91.32;94311.34;5076970;28;20609;-71
2023/05/17 01:31:57;;;;;;;10.20;9.23;;;;;;;13.01;91.43;94313.34;5077856;28;20189;-70
2023/05/17 01:34:29;;;;;;;13.40;9.85;;;;;;;13.00;91.53;94316.50;5077059;28;20196;-71
2023/05/17 01:36:57;;;;;;;11.25;9.63;;;;;;;13.01;91.56;94316.13;5076554;28;20204;-72
2023/05/17 01:39:25;;;;;;;9.90;9.10;;;;;;;13.01;91.68;94318.09;5076993;28;20250;-71
2023/05/17 01:42:06;;;;;;;11.57;10.35;;;;;;;13.00;91.77;94320.06;5077492;28;20254;-71
2023/05/17 01:44:40;;;;;;;11.25;10.07;;;;;;;12.99;91.83;94321.22;5077480;28;20621;-70
2023/05/17 01:47:13;;;;;;;11.15;9.68;;;;;;;12.99;91.88;94324.00;5077615;28;20208;-71
2023/05/17 01:49:42;;;;;;;11.55;9.75;;;;;;;12.99;91.89;94326.75;5077306;28;20192;-71
2023/05/17 01:52:16;;;;;;;10.25;9.25;;;;;;;12.90;91.41;94325.53;5076455;28;20258;-70
2023/05/17 01:54:48;;;;;;;10.95;9.65;;;;;;;12.77;91.52;94320.28;5076155;28;20216;-70
2023/05/17 01:57:20;;;;;;;10.57;9.43;;;;;;;12.78;91.63;94321.09;5077190;28;20197;-70
2023/05/17 01:59:50;;;;;;;10.77;8.95;;;;;;;12.77;91.75;94319.50;5076496;28;20205;-70
2023/05/17 02:02:17;;;;;;;10.63;9.52;;;;;;;12.78;91.82;94321.09;5076141;28;20197;-70
2023/05/17 02:04:45;;;;;;;11.70;10.57;;;;;;;12.80;91.79;94315.19;5076957;28;20182;-70
2023/05/17 02:07:15;;;;;;;11.73;10.30;;;;;;;12.81;91.83;94317.56;5077634;28;20231;-71
2023/05/17 02:09:45;;;;;;;12.75;11.45;;;;;;;12.79;91.75;94308.88;5076031;28;20201;-71
2023/05/17 02:12:16;;;;;;;11.60;10.48;;;;;;;12.73;91.59;94308.41;5077237;28;20185;-71
2023/05/17 02:14:48;;;;;;;12.98;11.10;;;;;;;12.74;91.82;94317.50;5075730;28;20225;-70
2023/05/17 02:17:16;;;;;;;11.45;10.30;;;;;;;12.72;91.48;94308.81;5076628;28;20208;-70
2023/05/17 02:19:47;;;;;;;11.00;10.10;;;;;;;12.71;91.61;94307.22;5076960;28;20193;-70
2023/05/17 02:22:15;;;;;;;11.48;10.27;;;;;;;12.71;91.51;94305.25;5076973;28;20193;-70
2023/05/17 02:24:42;;;;;;;10.93;9.90;;;;;;;12.71;91.33;94304.47;5075876;28;20193;-69
2023/05/17 02:27:11;;;;;;;12.73;11.13;;;;;;;12.67;90.89;94309.16;5076037;28;20185;-70
2023/05/17 02:29:39;;;;;;;12.13;10.88;;;;;;;12.64;91.09;94315.47;5077133;28;20250;-70
2023/05/17 02:32:14;;;;;;;14.23;10.60;;;;;;;12.46;90.53;94309.81;5075405;28;20606;-70
2023/05/17 02:34:42;;;;;;;10.90;9.75;;;;;;;12.36;90.52;94305.00;5076571;28;20192;-70
2023/05/17 02:37:13;;;;;;;10.77;9.77;;;;;;;12.34;90.54;94302.59;5075882;28;20197;-70
2023/05/17 02:39:41;;;;;;;10.80;9.80;;;;;;;12.34;91.03;94302.59;5076854;28;20189;-70
2023/05/17 02:42:08;;;;;;;12.13;9.82;;;;;;;12.37;90.94;94307.34;5076517;28;20186;-70
2023/05/17 02:44:35;;;;;;;11.68;10.05;;;;;;;12.36;90.70;94311.31;5076366;28;20205;-70
2023/05/17 02:47:05;;;;;;;10.82;9.77;;;;;;;12.36;90.62;94310.53;5076403;28;20250;-70
2023/05/17 02:49:37;;;;;;;11.48;10.32;;;;;;;12.21;90.58;94312.38;5075627;28;20204;-70
2023/05/17 02:52:06;;;;;;;11.38;10.23;;;;;;;12.13;90.50;94317.03;5076382;28;20208;-70
2023/05/17 02:54:36;;;;;;;11.25;10.18;;;;;;;12.15;90.94;94327.72;5076071;28;20181;-70
2023/05/17 02:57:04;;;;;;;11.68;10.68;;;;;;;12.19;91.55;94337.63;5076008;28;20212;-70
2023/05/17 02:59:32;;;;;;;11.70;10.50;;;;;;;12.25;91.88;94335.31;5075741;28;20200;-71
2023/05/17 03:02:01;;;;;;;12.40;11.20;;;;;;;12.29;91.92;94338.91;5075875;28;20189;-70
2023/05/17 03:04:29;;;;;;;13.20;11.80;;;;;;;12.31;91.95;94350.38;5074666;28;20209;-70
2023/05/17 03:07:02;;;;;;;12.55;10.75;;;;;;;12.31;91.82;94353.16;5075009;28;20200;-70
2023/05/17 03:09:32;;;;;;;14.63;13.13;;;;;;;12.24;91.32;94353.88;5074754;28;20197;-69
2023/05/17 03:12:00;;;;;;;12.68;11.57;;;;;;;12.25;91.58;94352.69;5076096;28;20185;-69
2023/05/17 03:14:31;;;;;;;13.18;11.85;;;;;;;12.28;91.47;94359.44;5073957;28;20209;-69
2023/05/17 03:17:00;;;;;;;11.85;10.77;;;;;;;12.23;90.99;94357.78;5074240;28;20332;-74
2023/05/17 03:19:30;;;;;;;13.02;11.63;;;;;;;12.10;90.66;94362.03;5075881;28;20188;-70
2023/05/17 03:22:00;;;;;;;12.15;10.95;;;;;;;11.97;90.92;94369.78;5075640;28;20201;-69
2023/05/17 03:24:31;;;;;;;13.38;12.07;;;;;;;11.95;91.27;94368.59;5074377;28;20605;-69
2023/05/17 03:26:58;;;;;;;12.82;11.40;;;;;;;11.99;91.26;94369.41;5075181;28;20647;-69
2023/05/17 03:29:26;;;;;;;12.75;11.45;;;;;;;11.99;91.01;94359.16;5074867;28;20196;-69
2023/05/17 03:31:57;;;;;;;13.13;11.80;;;;;;;11.96;91.16;94359.91;5075741;28;20262;-69
2023/05/17 03:34:26;;;;;;;13.95;12.57;;;;;;;11.88;90.97;94358.25;5074731;28;20196;-69
2023/05/17 03:36:57;;;;;;;14.40;12.90;;;;;;;11.89;91.43;94357.06;5075222;28;20208;-69
2023/05/17 03:39:36;;;;;;;13.75;12.45;;;;;;;11.93;91.11;94357.09;5057707;28;20315;-69
2023/05/17 03:42:10;;;;;;;13.77;12.32;;;;;;;11.99;91.24;94359.16;5075148;28;20605;-69
2023/05/17 03:44:36;;;;;;;14.05;12.75;;;;;;;12.03;91.23;94357.22;5075334;28;20200;-69
2023/05/17 03:47:03;;;;;;;13.98;11.95;;;;;;;12.07;91.52;94359.22;5075077;28;20254;-67
2023/05/17 03:49:31;;;;;;;14.25;12.85;;;;;;;12.12;91.42;94369.94;5074410;28;20210;-66
2023/05/17 03:51:59;;;;;;;13.82;12.38;;;;;;;12.14;91.64;94360.09;5075454;28;20193;-66
2023/05/17 03:54:29;;;;;;;13.85;12.60;;;;;;;12.13;91.51;94349.41;5074073;28;20193;-67
2023/05/17 03:56:57;;;;;;;13.20;11.77;;;;;;;12.16;91.79;94360.50;5074005;28;20216;-67
2023/05/17 03:59:28;;;;;;;11.50;10.30;;;;;;;12.20;91.48;94355.81;5074386;28;20234;-67
2023/05/17 04:01:56;;;;;;;13.50;10.40;;;;;;;12.23;91.21;94362.53;5075208;28;20243;-67
2023/05/17 04:04:27;;;;;;;11.32;10.18;;;;;;;12.24;90.99;94366.91;5074875;28;20662;-67
2023/05/17 04:06:54;;;;;;;13.60;11.43;;;;;;;12.27;91.21;94368.88;5073753;28;20213;-67
2023/05/17 04:09:23;;;;;;;14.60;12.48;;;;;;;12.24;91.11;94364.94;5075042;28;20197;-68
2023/05/17 04:11:52;;;;;;;14.70;13.05;;;;;;;12.16;91.33;94366.00;5073932;28;20246;-68
2023/05/17 04:14:21;;;;;;;16.15;12.15;;;;;;;12.13;91.65;94366.81;5075067;28;20227;-67
2023/05/17 04:16:51;;;;;;;14.73;13.00;;;;;;;12.15;91.87;94367.19;5074642;28;20240;-67
2023/05/17 04:19:19;;;;;;;14.40;11.90;;;;;;;12.15;91.87;94375.50;5073990;28;20300;-67
2023/05/17 04:21:47;;;;;;;14.75;12.05;;;;;;;12.11;92.04;94368.34;5075063;28;20196;-67
2023/05/17 04:24:15;;;;;;;14.50;13.07;;;;;;;12.14;92.62;94368.38;5074692;28;20565;-67
2023/05/17 04:26:45;;;;;;;15.07;12.57;;;;;;;12.19;92.45;94367.22;5078152;28;20185;-67
2023/05/17 04:29:14;;;;;;;12.88;11.68;;;;;;;12.25;92.55;94360.19;5078269;28;20181;-68
2023/05/17 04:31:42;;;;;;;12.73;11.43;;;;;;;12.29;92.73;94370.09;5078827;28;20235;-69
2023/05/17 04:34:11;;;;;;;14.13;11.80;;;;;;;12.34;92.46;94370.94;5078909;28;20213;-67
2023/05/17 04:36:38;;;;;;;14.23;12.70;;;;;;;12.37;92.87;94359.91;5077400;28;20219;-67
2023/05/17 04:39:06;;;;;;;12.50;11.30;;;;;;;12.42;92.69;94362.34;5077533;28;20193;-67
2023/05/17 04:41:34;;;;;;;12.52;11.32;;;;;;;12.47;92.66;94366.72;5078185;28;20258;-67
2023/05/17 04:44:03;;;;;;;16.92;10.95;;;;;;;12.49;93.13;94365.16;5078755;28;20208;-67
2023/05/17 04:46:32;;;;;;;12.70;11.35;;;;;;;12.56;92.98;94361.63;5077770;28;20254;-67
2023/05/17 04:48:59;;;;;;;13.07;11.77;;;;;;;12.65;92.99;94355.78;5077870;28;20212;-67
2023/05/17 04:51:28;;;;;;;14.43;13.00;;;;;;;12.81;92.12;94364.59;5078089;28;20262;-67
2023/05/17 04:53:57;;;;;;;15.80;12.50;;;;;;;12.89;90.70;94363.50;5077571;28;20200;-67
2023/05/17 04:56:25;;;;;;;15.95;12.70;;;;;;;12.94;89.81;94362.34;5077523;28;20208;-67
2023/05/17 04:58:53;;;;;;;14.18;12.77;;;;;;;13.00;89.52;94358.81;5078367;28;20196;-67
2023/05/17 05:01:22;;;;;;;14.90;13.30;;;;;;;13.08;89.05;94361.63;5078353;28;20498;-67
2023/05/17 05:03:54;;;;;;;15.20;13.60;;;;;;;13.12;88.37;94363.25;5078386;28;20560;-67
2023/05/17 05:06:22;;;;;;;16.25;13.48;;;;;;;13.19;88.21;94368.81;5077361;28;20208;-67
2023/05/17 05:08:51;;;;;;;15.10;13.60;;;;;;;13.25;88.28;94374.81;5077150;28;20193;-67
2023/05/17 05:11:18;;;;;;;15.68;13.98;;;;;;;13.24;86.66;94378.75;5077104;28;20235;-67
2023/05/17 05:13:45;;;;;;;14.57;12.85;;;;;;;13.28;86.33;94362.94;5078100;28;20185;-67
2023/05/17 05:16:13;;;;;;;15.77;14.07;;;;;;;13.35;86.14;94373.28;5076917;28;20605;-67
2023/05/17 05:18:41;;;;;;;17.52;12.90;;;;;;;13.39;85.64;94379.63;5077035;28;20322;-67
2023/05/17 05:21:11;;;;;;;16.15;13.07;;;;;;;13.45;85.12;94383.63;5077201;28;20250;-67
2023/05/17 05:23:37;;;;;;;15.68;13.48;;;;;;;13.50;84.52;94380.47;5077690;28;20201;-67
2023/05/17 05:26:06;;;;;;;14.98;13.30;;;;;;;13.57;84.57;94376.94;5060278;28;20300;-67
2023/05/17 05:28:32;;;;;;;15.15;12.88;;;;;;;13.60;83.51;94379.75;5077777;28;20208;-67
2023/05/17 05:30:59;;;;;;;14.18;12.68;;;;;;;13.65;83.34;94382.16;5077460;28;20227;-67
2023/05/17 05:33:27;;;;;;;14.98;13.25;;;;;;;13.72;83.50;94381.38;5076936;28;20201;-67
2023/05/17 05:35:55;;;;;;;15.32;12.50;;;;;;;13.79;83.02;94375.84;5077153;28;20205;-69
2023/05/17 05:38:25;;;;;;;15.23;13.23;;;;;;;13.83;81.95;94379.44;5077412;28;20193;-67
2023/05/17 05:40:53;;;;;;;14.90;12.48;;;;;;;13.87;81.45;94369.16;5077101;28;20200;-67
2023/05/17 05:43:20;;;;;;;15.02;12.70;;;;;;;13.90;80.75;94373.91;5077549;28;20188;-67
2023/05/17 05:45:48;;;;;;;14.60;13.10;;;;;;;13.95;80.98;94381.88;5077680;28;20200;-67
2023/05/17 05:48:16;;;;;;;16.15;13.23;;;;;;;13.98;80.12;94383.06;5077611;28;20196;-67
2023/05/17 05:50:45;;;;;;;13.32;12.02;;;;;;;14.03;80.13;94382.69;5076600;28;20200;-67
2023/05/17 05:53:13;;;;;;;15.30;13.73;;;;;;;14.08;80.41;94384.28;5077759;28;20268;-67
2023/05/17 05:55:42;;;;;;;13.55;12.20;;;;;;;14.12;80.49;94382.28;5077168;28;20189;-67
2023/05/17 05:58:10;;;;;;;14.38;11.77;;;;;;;14.16;80.30;94381.13;5077341;28;20177;-67
2023/05/17 06:00:39;;;;;;;14.63;12.88;;;;;;;14.18;78.63;94383.50;5077216;28;20227;-67
2023/05/17 06:03:07;;;;;;;14.88;11.82;;;;;;;14.23;78.71;94390.63;5076149;28;20201;-67
2023/05/17 06:05:35;;;;;;;15.55;12.68;;;;;;;14.28;79.08;94395.81;5076411;28;20250;-67
2023/05/17 06:08:02;;;;;;;16.50;12.35;;;;;;;14.33;78.91;94393.44;5076505;28;20186;-67
2023/05/17 06:10:31;;;;;;;13.25;11.95;;;;;;;14.39;78.30;94402.19;5077143;28;20193;-67
2023/05/17 06:13:00;;;;;;;13.70;10.65;;;;;;;14.42;78.05;94398.63;5076285;28;20205;-67
2023/05/17 06:15:28;;;;;;;14.55;12.23;;;;;;;14.48;78.08;94401.78;5076934;28;20237;-67
2023/05/17 06:17:56;;;;;;;13.23;11.30;;;;;;;14.52;77.06;94405.38;5076051;28;20226;-67
2023/05/17 06:20:27;;;;;;;13.50;10.95;;;;;;;14.58;77.34;94404.63;5076675;28;20671;-67
2023/05/17 06:22:57;;;;;;;13.43;12.18;;;;;;;14.62;77.20;94402.63;5075934;28;20201;-67
2023/05/17 06:25:26;;;;;;;13.73;12.38;;;;;;;14.65;77.17;94399.06;5076549;28;20185;-67
2023/05/17 06:27:54;;;;;;;13.90;11.63;;;;;;;14.69;77.20;94405.41;5075830;28;20201;-67
2023/05/17 06:30:26;;;;;;;12.23;10.82;;;;;;;14.73;76.83;94412.94;5076640;28;20186;-67
2023/05/17 06:32:58;;;;;;;14.23;12.02;;;;;;;14.76;77.23;94410.19;5076429;28;20192;-67
2023/05/17 06:35:26;;;;;;;13.93;11.68;;;;;;;14.75;76.27;94416.94;5075426;28;20228;-67
2023/05/17 06:37:54;;;;;;;13.43;11.75;;;;;;;14.79;76.74;94417.72;5075542;28;20221;-67
2023/05/17 06:40:22;;;;;;;12.75;10.90;;;;;;;14.85;77.34;94404.22;5075626;28;20208;-67
2023/05/17 06:42:50;;;;;;;12.98;11.15;;;;;;;14.87;75.54;94413.75;5075436;28;20200;-67
2023/05/17 06:45:18;;;;;;;14.73;11.15;;;;;;;14.92;75.88;94398.66;5076009;28;20601;-67
2023/05/17 06:47:52;;;;;;;11.75;10.10;;;;;;;14.94;75.13;94399.09;5075491;28;20258;-67
2023/05/17 06:50:20;;;;;;;10.68;8.07;;;;;;;15.01;75.57;94401.84;5075593;28;20254;-67
2023/05/17 06:52:51;;;;;;;16.77;10.23;;;;;;;15.17;76.08;94401.44;5075157;28;20204;-67
2023/05/17 06:55:21;;;;;;;11.15;8.75;;;;;;;15.29;76.05;94405.81;5075811;28;20243;-67
2023/05/17 06:57:51;;;;;;;11.88;8.90;;;;;;;15.42;75.42;94409.75;5075353;28;20216;-69
2023/05/17 07:00:20;;;;;;;12.23;8.75;;;;;;;15.54;74.37;94409.34;5076178;28;20185;-67
2023/05/17 07:02:50;;;;;;;12.90;9.52;;;;;;;15.55;74.95;94399.78;5074851;28;20679;-67
2023/05/17 07:05:19;;;;;;;11.48;9.45;;;;;;;15.54;74.13;94411.28;5076162;28;20201;-67
2023/05/17 07:07:47;;;;;;;12.55;9.32;;;;;;;15.51;73.79;94410.13;5074764;28;20197;-67
2023/05/17 07:10:19;;;;;;;11.15;8.98;;;;;;;15.53;74.55;94416.06;5075564;28;20197;-66
2023/05/17 07:12:47;;;;;;;13.23;9.65;;;;;;;15.59;75.88;94416.47;5075802;28;20193;-67
2023/05/17 07:15:15;;;;;;;10.75;9.30;;;;;;;15.62;75.06;94422.00;5074555;28;20246;-66
2023/05/17 07:17:43;;;;;;;11.23;8.85;;;;;;;15.64;75.34;94422.38;5074903;28;20209;-67
2023/05/17 07:20:14;;;;;;;12.80;9.38;;;;;;;15.76;75.10;94423.19;5074808;28;20208;-66
2023/05/17 07:22:42;;;;;;;11.35;9.30;;;;;;;15.80;75.21;94413.66;5075283;28;20296;-66
2023/05/17 07:25:10;;;;;;;11.07;8.85;;;;;;;15.85;74.97;94416.00;5074893;28;20201;-66
2023/05/17 07:27:38;;;;;;;15.75;9.68;;;;;;;15.95;75.01;94424.72;5075335;28;20197;-66
2023/05/17 07:30:08;;;;;;;11.65;9.70;;;;;;;15.97;74.35;94425.88;5075620;28;20185;-66
2023/05/17 07:32:36;;;;;;;13.88;9.88;;;;;;;15.96;73.80;94427.09;5074620;28;20197;-67
2023/05/17 07:35:07;;;;;;;12.07;8.70;;;;;;;16.01;74.06;94425.88;5074442;28;20201;-67
2023/05/17 07:37:36;;;;;;;12.07;9.07;;;;;;;16.07;74.56;94418.72;5075095;28;20349;-66
2023/05/17 07:40:06;;;;;;;12.07;9.10;;;;;;;16.09;73.86;94431.03;5074497;28;20192;-66
2023/05/17 07:42:36;;;;;;;11.65;8.95;;;;;;;16.12;74.25;94432.19;5075336;28;20250;-67
2023/05/17 07:45:04;;;;;;;12.25;8.05;;;;;;;16.14;73.85;94429.81;5075154;28;20197;-66
2023/05/17 07:47:32;;;;;;;13.20;9.23;;;;;;;16.15;74.20;94419.47;5074275;28;20193;-66
2023/05/17 07:50:38;;;;;;;13.35;9.77;;;;;;;16.18;73.22;94415.88;5040485;28;20220;-66
2023/05/17 07:53:43;;;;;;;11.93;8.90;;;;;;;16.18;73.59;94418.66;5073872;28;20205;-66
2023/05/17 07:56:48;;;;;;;10.80;9.13;;;;;;;16.21;73.12;94415.06;5074174;28;20197;-66
2023/05/17 07:59:53;;;;;;;12.18;8.80;;;;;;;16.24;73.82;94414.28;5074455;28;20220;-66
2023/05/17 08:02:58;;;;;;;9.98;8.32;;;;;;;16.30;73.08;94413.44;5074883;28;20185;-67
2023/05/17 08:06:07;;;;;;;11.70;9.15;;;;;;;16.34;72.57;94422.56;5073938;28;20205;-67
2023/05/17 08:09:13;;;;;;;11.93;8.65;;;;;;;16.44;72.62;94422.91;5074135;28;20185;-67
2023/05/17 08:12:22;;;;;;;11.50;8.35;;;;;;;16.49;72.79;94426.06;5074037;28;20193;-67
2023/05/17 08:15:27;;;;;;;13.48;8.75;;;;;;;16.57;72.26;94415.66;5074412;28;20644;-66
2023/05/17 08:18:32;;;;;;;12.95;8.95;;;;;;;16.69;72.87;94414.41;5074588;28;20629;-66
2023/05/17 08:21:38;;;;;;;13.80;9.57;;;;;;;16.74;72.38;94414.78;5074740;28;20246;-66
2023/05/17 08:24:43;;;;;;;12.43;8.90;;;;;;;16.79;71.86;94419.91;5075009;28;20189;-66
2023/05/17 08:27:52;;;;;;;11.38;8.45;;;;;;;16.84;71.48;94410.34;5074435;28;20585;-66
2023/05/17 08:30:57;;;;;;;13.52;9.77;;;;;;;16.88;71.63;94404.75;5073582;28;20549;-66
2023/05/17 08:34:02;;;;;;;11.50;9.27;;;;;;;16.95;71.58;94407.47;5073885;28;20219;-66
2023/05/17 08:37:07;;;;;;;11.10;8.65;;;;;;;17.01;71.31;94408.63;5073725;28;20199;-66
2023/05/17 08:40:13;;;;;;;15.50;9.80;;;;;;;17.01;71.51;94411.41;5073937;28;20200;-66
2023/05/17 08:43:23;;;;;;;14.63;10.27;;;;;;;17.00;70.77;94416.19;5073817;28;20193;-66
2023/05/17 08:46:30;;;;;;;11.80;9.55;;;;;;;16.95;70.99;94413.03;5073790;28;20201;-66
2023/05/17 08:49:36;;;;;;;15.23;10.75;;;;;;;17.00;71.51;94416.19;5074050;28;20204;-66
2023/05/17 08:52:09;;;;;;;14.75;10.38;;;;;;;17.07;70.94;94412.56;5073649;28;20204;-66
2023/05/17 08:54:37;;;;;;;13.57;9.98;;;;;;;17.12;70.41;94409.31;5074325;28;20181;-66
2023/05/17 08:57:07;;;;;;;12.07;9.27;;;;;;;17.18;69.58;94407.69;5073345;28;20221;-66
2023/05/17 08:59:35;;;;;;;14.30;10.38;;;;;;;17.20;71.47;94410.84;5073533;28;20209;-66
2023/05/17 09:02:06;;;;;;;14.57;10.43;;;;;;;17.22;70.47;94404.88;5073797;28;20595;-66
2023/05/17 09:04:37;;;;;;;12.50;10.25;;;;;;;17.23;71.03;94409.22;5073421;28;20209;-67
2023/05/17 09:07:04;;;;;;;10.80;8.27;;;;;;;17.28;70.15;94404.03;5074351;28;20228;-67
2023/05/17 09:09:36;;;;;;;13.60;9.50;;;;;;;17.37;70.26;94413.88;5073510;28;20681;-66
2023/05/17 09:12:03;;;;;;;11.98;8.27;;;;;;;17.37;68.19;94405.53;5075375;28;20534;-67
2023/05/17 09:14:37;;;;;;;14.48;9.52;;;;;;;17.27;69.12;94410.78;5077156;28;20197;-66
2023/05/17 09:17:06;;;;;;;11.98;9.15;;;;;;;17.25;69.76;94399.25;5076917;28;20236;-66
2023/05/17 09:19:44;;;;;;;17.15;9.60;;;;;;;17.27;71.19;94394.06;5076863;28;20201;-67
2023/05/17 09:22:13;;;;;;;15.32;9.35;;;;;;;17.29;69.29;94399.22;5077100;28;20193;-67
2023/05/17 09:24:43;;;;;;;15.15;9.35;;;;;;;17.26;69.31;94388.91;5077424;28;20219;-66
2023/05/17 09:27:15;;;;;;;10.68;8.07;;;;;;;17.18;68.60;94388.19;5077145;28;20189;-66
2023/05/17 09:29:44;;;;;;;12.20;8.35;;;;;;;17.18;69.47;94395.75;5077426;28;20254;-66
2023/05/17 09:32:17;;;;;;;13.35;9.18;;;;;;;17.29;69.83;94394.44;5077772;28;20193;-66
2023/05/17 09:34:49;;;;;;;13.93;8.85;;;;;;;17.43;69.08;94393.53;5077805;28;20250;-66
2023/05/17 09:37:21;;;;;;;12.40;8.73;;;;;;;17.57;70.04;94387.00;5076479;28;20270;-66
2023/05/17 09:39:55;;;;;;;11.10;8.32;;;;;;;17.64;68.69;94388.91;5076684;28;20762;-66
2023/05/17 09:42:26;;;;;;;16.27;9.88;;;;;;;17.69;69.53;94382.91;5076724;28;20250;-66
2023/05/17 09:44:57;;;;;;;13.18;9.48;;;;;;;17.71;67.92;94377.69;5077119;28;20293;-66
2023/05/17 09:47:29;;;;;;;12.43;9.00;;;;;;;17.72;68.59;94379.25;5077591;28;20258;-67
2023/05/17 09:49:59;;;;;;;13.90;8.52;;;;;;;17.68;68.37;94386.88;5076576;28;20242;-67
2023/05/17 09:52:30;;;;;;;14.18;8.40;;;;;;;17.56;67.51;94391.78;5077636;28;20200;-67
2023/05/17 09:55:00;;;;;;;11.32;9.15;;;;;;;17.52;67.57;94393.03;5077194;28;20200;-67
2023/05/17 09:57:36;;;;;;;11.82;8.82;;;;;;;17.44;68.63;94383.94;5077246;28;20212;-67
2023/05/17 10:00:10;;;;;;;11.32;9.15;;;;;;;17.42;68.95;94386.34;5077395;28;20276;-66
2023/05/17 10:02:40;;;;;;;11.45;9.10;;;;;;;17.36;68.04;94385.22;5076516;28;20233;-66
2023/05/17 10:05:11;;;;;;;11.27;8.27;;;;;;;17.39;69.36;94381.59;5075919;28;20203;-67
2023/05/17 10:07:39;;;;;;;12.68;7.93;;;;;;;17.43;69.17;94374.00;5077133;28;20217;-66
2023/05/17 10:10:09;;;;;;;12.38;8.35;;;;;;;17.42;68.37;94375.19;5077318;28;20185;-66
2023/05/17 10:12:38;;;;;;;13.40;7.88;;;;;;;17.39;69.05;94376.00;5076725;28;20519;-66
2023/05/17 10:15:07;;;;;;;12.27;8.48;;;;;;;17.39;68.40;94370.44;5075728;28;20548;-66
2023/05/17 10:17:37;;;;;;;11.90;7.85;;;;;;;17.39;68.80;94369.66;5076606;28;20675;-66
2023/05/17 10:20:07;;;;;;;11.30;8.48;;;;;;;17.38;68.83;94368.09;5075648;28;20609;-66
2023/05/17 10:22:36;;;;;;;11.45;7.25;;;;;;;17.26;67.16;94364.63;5075841;28;20209;-66
2023/05/17 10:25:05;;;;;;;12.65;7.63;;;;;;;17.21;68.04;94350.31;5076095;28;20201;-66
2023/05/17 10:27:37;;;;;;;9.07;7.30;;;;;;;17.14;67.36;94353.19;5075850;28;20197;-66
2023/05/17 10:30:07;;;;;;;11.90;7.82;;;;;;;17.07;67.24;94338.13;5076784;28;20509;-66
2023/05/17 10:32:36;;;;;;;10.25;7.57;;;;;;;17.03;68.02;94325.41;5076617;28;20230;-66
2023/05/17 10:35:08;;;;;;;11.20;7.68;;;;;;;16.98;68.24;94318.31;5075778;28;20209;-67
2023/05/17 10:37:36;;;;;;;9.00;6.70;;;;;;;16.98;68.67;94312.72;5076307;28;20216;-66
2023/05/17 10:40:11;;;;;;;11.40;6.88;;;;;;;17.02;68.82;94298.78;5076469;28;20178;-66
2023/05/17 10:42:43;;;;;;;12.50;6.95;;;;;;;17.01;68.15;94295.19;5076503;28;20203;-66
2023/05/17 10:45:12;;;;;;;13.73;7.20;;;;;;;16.99;67.96;94277.31;5075765;28;20205;-66
2023/05/17 10:47:41;;;;;;;12.60;7.65;;;;;;;16.95;68.24;94260.63;5075437;28;20197;-66
2023/05/17 10:50:11;;;;;;;11.57;7.68;;;;;;;16.95;68.32;94271.78;5075287;28;20225;-66
2023/05/17 10:52:45;;;;;;;9.70;7.35;;;;;;;16.94;68.22;94253.50;5075668;28;20201;-66
2023/05/17 10:55:13;;;;;;;11.70;7.22;;;;;;;16.94;68.40;94249.91;5075244;28;20197;-66
2023/05/17 10:57:42;;;;;;;14.05;7.65;;;;;;;16.94;68.59;94249.91;5076357;28;20209;-66
2023/05/17 11:00:20;;;;;;;10.77;7.32;;;;;;;16.94;68.45;94249.91;5075167;28;20200;-66
2023/05/17 11:02:49;;;;;;;12.30;8.18;;;;;;;16.95;68.90;94246.69;5074277;28;20207;-66
2023/05/17 11:05:27;;;;;;;11.60;7.03;;;;;;;16.96;68.28;94239.16;5075082;28;20224;-66
2023/05/17 11:08:12;;;;;;;12.85;7.57;;;;;;;16.97;68.37;94235.94;5075907;28;20177;-66
2023/05/17 11:11:08;;;;;;;13.13;7.50;;;;;;;17.00;68.20;94242.69;5075174;28;20196;-66
2023/05/17 11:13:46;;;;;;;13.45;8.15;;;;;;;17.00;68.27;94251.84;5075028;28;20193;-67
2023/05/17 11:16:15;;;;;;;11.05;6.85;;;;;;;17.04;69.13;94254.59;5074588;28;20241;-66
2023/05/17 11:18:51;;;;;;;12.77;7.20;;;;;;;17.08;68.97;94269.25;5075672;28;20208;-66
2023/05/17 11:21:23;;;;;;;15.32;7.53;;;;;;;17.08;68.33;94275.63;5075521;28;20200;-66
2023/05/17 11:23:55;;;;;;;12.60;8.00;;;;;;;17.10;69.91;94280.78;5074755;28;20204;-66
2023/05/17 11:26:24;;;;;;;13.02;7.78;;;;;;;17.12;69.59;94288.72;5075359;28;20617;-66
2023/05/17 11:29:00;;;;;;;11.88;7.47;;;;;;;17.03;68.17;94305.91;5074636;28;20189;-66
2023/05/17 11:31:34;;;;;;;8.23;6.97;;;;;;;16.96;68.33;94314.38;5074508;28;20234;-66
2023/05/17 11:34:05;;;;;;;10.50;7.90;;;;;;;16.91;68.47;94325.94;5074081;28;20197;-66
2023/05/17 11:36:52;;;;;;;9.25;7.15;;;;;;;16.82;69.40;94327.22;5058275;28;20246;-66
2023/05/17 11:39:21;;;;;;;11.23;7.70;;;;;;;16.82;69.94;94338.34;5075396;28;20204;-66
2023/05/17 11:41:52;;;;;;;11.98;7.93;;;;;;;16.86;70.63;94337.53;5075765;28;20185;-67
2023/05/17 11:44:32;;;;;;;11.63;7.20;;;;;;;16.89;69.47;94333.94;5074624;28;20296;-66
2023/05/17 11:47:03;;;;;;;12.80;9.07;;;;;;;16.88;70.43;94349.03;5075416;28;20199;-67